createdAt,value
2022-08-14T00:01:31.867Z,29.83
2022-08-14T00:03:58.811Z,1145.13
2022-08-14T00:06:28.972Z,1359.03
2022-08-14T00:08:58.988Z,1352.20
2022-08-14T00:11:31.301Z,1238.55
2022-08-14T00:14:02.010Z,1362.77
2022-08-14T00:16:40.348Z,1074.80
2022-08-14T00:19:18.630Z,1144.30
2022-08-14T00:21:47.651Z,963.72
2022-08-14T00:24:23.165Z,1002.03
2022-08-14T00:26:58.318Z,1321.43
2022-08-14T00:29:33.239Z,861.85
2022-08-14T00:32:56.056Z,864.97
2022-08-14T00:34:56.584Z,798.38
2022-08-14T00:37:23.526Z,595.85
2022-08-14T00:39:51.110Z,539.93
2022-08-14T00:42:52.604Z,428.92
2022-08-14T00:45:11.390Z,600.53
2022-08-14T00:47:44.683Z,536.88
2022-08-14T00:50:17.631Z,669.78
2022-08-14T00:52:50.874Z,404.98
2022-08-14T00:55:19.856Z,1214.47
2022-08-14T00:58:07.657Z,1112.63
2022-08-14T01:00:42.892Z,742.90
2022-08-14T01:03:17.708Z,634.65
2022-08-14T01:05:52.030Z,484.83
2022-08-14T01:08:57.759Z,526.17
2022-08-14T01:11:19.216Z,1053.18
2022-08-14T01:13:50.822Z,604.85
2022-08-14T01:16:31.124Z,982.40
2022-08-14T01:19:19.575Z,557.65
2022-08-14T01:21:53.186Z,308.55
2022-08-14T01:24:24.618Z,327.63
2022-08-14T01:27:00.138Z,61.97
2022-08-14T01:29:58.838Z,269.98
2022-08-14T01:32:22.841Z,566.92
2022-08-14T01:35:17.791Z,551.42
2022-08-14T01:37:54.527Z,532.60
2022-08-14T01:40:25.648Z,527.42
2022-08-14T01:43:00.174Z,499.73
2022-08-14T01:45:31.507Z,548.05
2022-08-14T01:48:13.838Z,443.90
2022-08-14T01:50:42.446Z,463.10
2022-08-14T01:53:10.466Z,490.80
2022-08-14T01:55:40.496Z,706.65
2022-08-14T01:58:19.614Z,758.80
2022-08-14T02:00:56.308Z,567.83
2022-08-14T02:03:29.951Z,733.70
2022-08-14T02:06:03.887Z,737.80
2022-08-14T02:08:52.986Z,684.33
2022-08-14T02:11:24.176Z,607.88
2022-08-14T02:14:07.165Z,350.92
2022-08-14T02:16:43.344Z,250.75
2022-08-14T02:19:15.232Z,187.93
2022-08-14T02:21:47.251Z,181.68
2022-08-14T02:24:39.776Z,25.77
2022-08-14T02:28:25.370Z,149.23
2022-08-14T02:30:01.270Z,387.67
2022-08-14T02:32:36.497Z,205.82
2022-08-14T02:35:18.690Z,391.80
2022-08-14T02:37:49.388Z,324.88
2022-08-14T02:40:32.314Z,14.15
2022-08-14T02:43:02.771Z,286.13
2022-08-14T02:45:38.414Z,198.60
2022-08-14T02:49:01.334Z,107.30
2022-08-14T02:51:00.540Z,15.55
2022-08-14T02:53:29.326Z,42.85
2022-08-14T02:56:02.456Z,10.75
2022-08-14T02:58:31.209Z,138.43
2022-08-14T03:00:59.594Z,158.53
2022-08-14T03:03:28.490Z,34.57
2022-08-14T03:06:00.195Z,586.83
2022-08-14T03:08:31.684Z,490.70
2022-08-14T03:11:06.498Z,836.72
2022-08-14T03:13:35.883Z,638.63
2022-08-14T03:16:08.952Z,578.33
2022-08-14T03:18:42.344Z,623.07
2022-08-14T03:21:13.305Z,530.13
2022-08-14T03:23:42.116Z,239.23
2022-08-14T03:26:13.256Z,525.33
2022-08-14T03:28:48.146Z,297.27
2022-08-14T03:31:15.538Z,9.33
2022-08-14T03:33:43.229Z,89.07
2022-08-14T03:37:39.445Z,141.93
2022-08-14T03:39:14.138Z,37.30
2022-08-14T03:41:55.016Z,6.88
2022-08-14T03:45:19.340Z,8.50
2022-08-14T03:47:09.295Z,436.77
2022-08-14T03:49:42.321Z,30.85
2022-08-14T03:52:38.388Z,6.30
2022-08-14T03:54:58.790Z,7.15
2022-08-14T03:57:25.530Z,22.13
2022-08-14T03:59:52.307Z,44.03
2022-08-14T04:02:46.814Z,6.25
2022-08-14T04:05:12.925Z,6.68
2022-08-14T04:07:41.509Z,8.00
2022-08-14T04:10:32.629Z,5.80
2022-08-14T04:13:03.729Z,7.07
2022-08-14T04:15:31.808Z,5.93
2022-08-14T04:18:18.689Z,6.43
2022-08-14T04:20:54.503Z,6.53
2022-08-14T04:23:29.344Z,8.10
2022-08-14T04:26:01.367Z,6.07
2022-08-14T04:29:09.036Z,6.10
2022-08-14T04:31:16.434Z,8.40
2022-08-14T04:33:43.142Z,7.22
2022-08-14T04:36:15.855Z,6.73
2022-08-14T04:39:03.134Z,8.02
2022-08-14T04:41:53.161Z,8.73
2022-08-14T04:44:35.758Z,6.90
2022-08-14T04:47:22.636Z,5.80
2022-08-14T04:49:56.846Z,7.15
2022-08-14T04:52:25.054Z,6.80
2022-08-14T04:54:52.404Z,6.55
2022-08-14T04:57:21.797Z,6.10
2022-08-14T04:59:49.704Z,6.20
2022-08-14T05:02:18.249Z,7.97
2022-08-14T05:04:45.525Z,7.18
2022-08-14T05:07:46.324Z,5.38
2022-08-14T05:10:13.144Z,6.20
2022-08-14T05:13:21.263Z,7.70
2022-08-14T05:15:29.433Z,6.25
2022-08-14T05:18:17.740Z,6.82
2022-08-14T05:21:54.521Z,7.30
2022-08-14T05:23:39.862Z,8.65
2022-08-14T05:26:18.066Z,5.60
2022-08-14T05:28:46.323Z,5.82
2022-08-14T05:31:20.682Z,8.02
2022-08-14T05:33:56.820Z,9.60
2022-08-14T05:36:24.932Z,6.25
2022-08-14T05:38:53.162Z,6.90
2022-08-14T05:41:21.878Z,6.40
2022-08-14T05:43:49.681Z,8.95
2022-08-14T05:46:22.726Z,6.50
2022-08-14T05:48:51.596Z,6.50
2022-08-14T05:51:19.011Z,9.30
2022-08-14T05:54:01.828Z,7.68
2022-08-14T05:56:32.726Z,8.63
2022-08-14T05:59:05.440Z,8.18
2022-08-14T06:01:32.393Z,6.45
2022-08-14T06:04:00.305Z,7.50
2022-08-14T06:06:27.017Z,6.60
2022-08-14T06:08:53.734Z,6.97
2022-08-14T06:11:30.653Z,5.80
2022-08-14T06:13:58.571Z,8.45
2022-08-14T06:16:25.352Z,9.35
2022-08-14T06:18:52.893Z,7.00
2022-08-14T06:21:23.998Z,5.57
2022-08-14T06:23:51.404Z,7.40
2022-08-14T06:26:20.771Z,6.70
2022-08-14T06:28:52.111Z,6.55
2022-08-14T06:31:19.687Z,6.30
2022-08-14T06:35:04.756Z,8.40
2022-08-14T06:36:35.123Z,5.90
2022-08-14T06:39:02.268Z,6.32
2022-08-14T06:41:58.558Z,6.15
2022-08-14T06:44:15.879Z,6.00
2022-08-14T06:46:42.966Z,5.73
2022-08-14T06:49:16.314Z,5.75
2022-08-14T06:51:46.736Z,5.20
2022-08-14T06:54:16.694Z,5.35
2022-08-14T06:56:44.371Z,6.38
2022-08-14T06:59:20.825Z,6.05
2022-08-14T07:02:13.722Z,5.20
2022-08-14T07:05:05.283Z,5.33
2022-08-14T07:07:39.780Z,5.22
2022-08-14T07:10:16.820Z,4.80
2022-08-14T07:12:56.403Z,5.35
2022-08-14T07:15:33.661Z,5.07
2022-08-14T07:18:03.793Z,5.47
2022-08-14T07:20:35.552Z,5.93
2022-08-14T07:23:07.807Z,5.75
2022-08-14T07:25:42.153Z,5.17
2022-08-14T07:28:21.218Z,6.10
2022-08-14T07:30:51.122Z,7.13
2022-08-14T07:33:24.285Z,4.90
2022-08-14T07:35:57.694Z,5.85
2022-08-14T07:38:24.970Z,5.13
2022-08-14T07:40:53.060Z,5.35
2022-08-14T07:43:21.750Z,6.50
2022-08-14T07:45:50.838Z,4.63
2022-08-14T07:48:20.548Z,5.90
2022-08-14T07:50:55.285Z,5.10
2022-08-14T07:53:25.088Z,6.50
2022-08-14T07:56:00.187Z,5.00
2022-08-14T07:58:38.820Z,7.97
2022-08-14T08:01:19.325Z,6.90
2022-08-14T08:03:51.950Z,5.95
2022-08-14T08:06:26.766Z,5.88
2022-08-14T08:09:01.014Z,6.00
2022-08-14T08:11:34.961Z,5.00
2022-08-14T08:14:17.255Z,5.10
2022-08-14T08:16:50.939Z,4.43
2022-08-14T08:19:19.030Z,4.60
2022-08-14T08:21:47.089Z,5.30
2022-08-14T08:24:19.879Z,4.85
2022-08-14T08:26:50.718Z,5.00
2022-08-14T08:29:28.655Z,4.80
2022-08-14T08:32:01.876Z,6.35
2022-08-14T08:34:46.726Z,4.60
2022-08-14T08:37:14.958Z,4.85
2022-08-14T08:40:01.861Z,4.70
2022-08-14T08:42:31.361Z,3.33
2022-08-14T08:45:14.863Z,6.03
2022-08-14T08:47:45.492Z,5.27
2022-08-14T08:50:23.486Z,4.30
2022-08-14T08:53:09.579Z,4.20
2022-08-14T08:55:43.406Z,4.47
2022-08-14T08:58:19.786Z,4.40
2022-08-14T09:00:50.049Z,4.97
2022-08-14T09:03:25.542Z,4.20
2022-08-14T09:07:00.863Z,3.70
2022-08-14T09:08:52.476Z,4.53
2022-08-14T09:11:21.171Z,4.72
2022-08-14T09:13:53.468Z,4.22
2022-08-14T09:16:25.545Z,4.50
2022-08-14T09:18:53.955Z,4.20
2022-08-14T09:21:24.141Z,3.88
2022-08-14T09:24:26.799Z,4.00
2022-08-14T09:26:44.160Z,4.05
2022-08-14T09:29:16.659Z,4.90
2022-08-14T09:31:53.189Z,4.93
2022-08-14T09:34:47.389Z,4.30
2022-08-14T09:37:40.866Z,4.70
2022-08-14T09:40:21.218Z,4.80
2022-08-14T09:43:02.749Z,4.47
2022-08-14T09:45:53.137Z,4.03
2022-08-14T09:48:30.179Z,4.40
2022-08-14T09:54:19.354Z,3.53
2022-08-14T09:56:32.793Z,4.33
2022-08-14T09:59:15.082Z,4.40
2022-08-14T10:01:43.728Z,4.50
2022-08-14T10:04:34.395Z,4.50
2022-08-14T10:07:05.566Z,4.60
2022-08-14T10:09:35.043Z,4.28
2022-08-14T10:12:04.529Z,4.60
2022-08-14T10:14:36.620Z,4.25
2022-08-14T10:17:06.324Z,5.00
2022-08-14T10:19:36.527Z,4.20
2022-08-14T10:23:14.317Z,5.40
2022-08-14T10:24:57.477Z,8.48
2022-08-14T10:27:27.274Z,4.10
2022-08-14T10:30:00.661Z,4.10
2022-08-14T10:32:38.092Z,4.20
2022-08-14T10:35:14.346Z,5.20
2022-08-14T10:37:48.079Z,4.53
2022-08-14T10:40:43.635Z,4.57
2022-08-14T10:43:25.549Z,3.90
2022-08-14T10:46:04.180Z,4.55
2022-08-14T10:49:06.480Z,5.05
2022-08-14T10:51:36.072Z,4.80
2022-08-14T10:54:35.321Z,4.50
2022-08-14T10:57:24.353Z,4.73
2022-08-14T10:59:57.815Z,4.32
2022-08-14T11:02:53.958Z,4.70
2022-08-14T11:05:26.362Z,4.00
2022-08-14T11:08:02.741Z,4.20
2022-08-14T11:10:52.794Z,4.30
2022-08-14T11:13:25.150Z,4.00
2022-08-14T11:15:52.533Z,4.40
2022-08-14T11:18:30.314Z,4.55
2022-08-14T11:21:01.931Z,4.50
2022-08-14T11:23:38.354Z,4.15
2022-08-14T11:26:10.257Z,4.40
2022-08-14T11:28:47.570Z,4.43
2022-08-14T11:31:23.480Z,4.32
2022-08-14T11:33:55.391Z,4.00
2022-08-14T11:36:35.144Z,4.10
2022-08-14T11:39:34.003Z,4.80
2022-08-14T11:42:57.144Z,4.97
2022-08-14T11:45:11.158Z,5.03
2022-08-14T11:48:13.471Z,4.00
2022-08-14T11:50:37.512Z,4.75
2022-08-14T11:53:19.978Z,4.55
2022-08-14T11:55:46.948Z,4.38
2022-08-14T11:58:24.250Z,4.35
2022-08-14T12:00:59.885Z,5.20
2022-08-14T12:03:56.999Z,4.80
2022-08-14T12:06:29.420Z,5.20
2022-08-14T12:09:08.741Z,5.43
2022-08-14T12:11:44.202Z,4.90
2022-08-14T12:14:29.233Z,4.30
2022-08-14T12:17:12.727Z,4.72
2022-08-14T12:19:56.858Z,4.38
2022-08-14T12:22:35.504Z,4.10
2022-08-14T12:25:10.666Z,4.43
2022-08-14T12:28:01.078Z,3.80
2022-08-14T12:30:43.085Z,4.18
2022-08-14T12:33:47.067Z,4.00
2022-08-14T12:36:21.586Z,3.47
2022-08-14T12:38:54.361Z,3.90
2022-08-14T12:41:24.063Z,4.25
2022-08-14T12:43:59.717Z,3.92
2022-08-14T12:46:33.746Z,3.90
2022-08-14T12:49:09.748Z,7.55
2022-08-14T12:51:37.819Z,4.40
2022-08-14T12:54:27.778Z,4.00
2022-08-14T12:57:17.011Z,12.75
2022-08-14T12:59:45.692Z,3.60
2022-08-14T13:02:29.805Z,3.17
2022-08-14T13:04:57.983Z,3.28
2022-08-14T13:07:32.767Z,3.30
2022-08-14T13:10:00.584Z,5.90
2022-08-14T13:13:11.981Z,3.42
2022-08-14T13:15:38.176Z,2.80
2022-08-14T13:18:09.308Z,57.92
2022-08-14T13:20:36.286Z,157.93
2022-08-14T13:23:03.638Z,9.13
2022-08-14T13:25:30.698Z,3.50
2022-08-14T13:28:02.468Z,4.38
2022-08-14T13:30:29.308Z,3.43
2022-08-14T13:32:58.459Z,3.50
2022-08-14T13:35:26.460Z,4.22
2022-08-14T13:37:54.159Z,3.20
2022-08-14T13:40:26.421Z,4.40
2022-08-14T13:42:56.799Z,5.20
2022-08-14T13:45:56.403Z,3.33
2022-08-14T13:48:27.711Z,3.10
2022-08-14T13:51:01.841Z,124.15
2022-08-14T13:53:33.396Z,125.68
2022-08-14T13:56:01.457Z,4.60
2022-08-14T13:58:34.632Z,3.30
2022-08-14T14:01:02.714Z,586.88
2022-08-14T14:03:37.917Z,857.85
2022-08-14T14:06:07.039Z,1182.82
2022-08-14T14:08:45.863Z,309.08
2022-08-14T14:11:16.478Z,276.60
2022-08-14T14:13:48.503Z,183.65
2022-08-14T14:16:22.008Z,933.47
2022-08-14T14:19:06.127Z,741.65
2022-08-14T14:21:34.718Z,827.80
2022-08-14T14:24:02.438Z,726.28
2022-08-14T14:26:30.284Z,737.45
2022-08-14T14:29:01.539Z,486.27
2022-08-14T14:31:31.112Z,162.55
2022-08-14T14:34:07.289Z,313.88
2022-08-14T14:36:44.674Z,248.30
2022-08-14T14:39:20.230Z,203.23
2022-08-14T14:41:56.002Z,6.72
2022-08-14T14:44:25.714Z,336.00
2022-08-14T14:46:54.421Z,304.92
2022-08-14T14:49:25.895Z,374.05
2022-08-14T14:52:20.767Z,448.20
2022-08-14T14:54:58.289Z,203.98
2022-08-14T14:57:35.351Z,137.55
2022-08-14T15:00:12.812Z,119.40
2022-08-14T15:02:43.930Z,4.85
2022-08-14T15:05:14.000Z,4.30
2022-08-14T15:07:42.628Z,4.00
2022-08-14T15:10:27.739Z,4.80
2022-08-14T15:13:00.124Z,11.93
2022-08-14T15:15:30.262Z,132.80
2022-08-14T15:17:59.583Z,226.87
2022-08-14T15:20:30.642Z,273.45
2022-08-14T15:23:11.966Z,356.77
2022-08-14T15:25:40.914Z,255.05
2022-08-14T15:28:11.620Z,15.73
2022-08-14T15:30:42.212Z,8.60
2022-08-14T15:33:10.773Z,150.88
2022-08-14T15:35:45.052Z,240.00
2022-08-14T15:38:17.552Z,264.30
2022-08-14T15:40:55.899Z,172.85
2022-08-14T15:43:25.458Z,235.70
2022-08-14T15:45:56.127Z,281.17
2022-08-14T15:48:23.346Z,622.87
2022-08-14T15:50:50.912Z,711.60
2022-08-14T15:53:18.734Z,555.42
2022-08-14T15:55:46.485Z,660.42
2022-08-14T15:58:14.604Z,950.30
2022-08-14T16:01:00.473Z,875.28
2022-08-14T16:03:35.147Z,391.43
2022-08-14T16:06:10.938Z,870.17
2022-08-14T16:08:44.196Z,904.67
2022-08-14T16:11:12.951Z,796.13
2022-08-14T16:13:45.154Z,872.45
2022-08-14T16:16:49.244Z,845.47
2022-08-14T16:19:10.162Z,642.20
2022-08-14T16:21:39.943Z,778.47
2022-08-14T16:24:26.920Z,952.97
2022-08-14T16:27:00.260Z,850.40
2022-08-14T16:29:32.837Z,833.45
2022-08-14T16:32:02.041Z,869.80
2022-08-14T16:34:51.119Z,1114.82
2022-08-14T16:37:22.445Z,839.83
2022-08-14T16:39:49.506Z,649.42
2022-08-14T16:42:39.061Z,838.27
2022-08-14T16:45:12.251Z,563.58
2022-08-14T16:47:40.325Z,683.17
2022-08-14T16:50:11.094Z,997.33
2022-08-14T16:52:45.131Z,699.92
2022-08-14T16:55:30.026Z,915.28
2022-08-14T16:57:58.486Z,865.70
2022-08-14T17:00:33.050Z,1181.28
2022-08-14T17:03:11.676Z,905.97
2022-08-14T17:05:41.692Z,957.92
2022-08-14T17:08:31.604Z,619.28
2022-08-14T17:11:10.237Z,768.22
2022-08-14T17:13:59.511Z,764.53
2022-08-14T17:16:36.892Z,605.80
2022-08-14T17:19:13.449Z,828.83
2022-08-14T17:21:42.195Z,856.67
2022-08-14T17:24:56.586Z,733.47
2022-08-14T17:27:05.067Z,258.52
2022-08-14T17:29:54.591Z,844.80
2022-08-14T17:32:29.497Z,900.30
2022-08-14T17:35:12.461Z,659.83
2022-08-14T17:37:46.304Z,1165.10
2022-08-14T17:40:16.777Z,1045.97
2022-08-14T17:42:50.985Z,778.95
2022-08-14T17:45:43.141Z,79.18
2022-08-14T17:49:13.837Z,911.20
2022-08-14T17:51:23.192Z,35.30
2022-08-14T17:53:53.421Z,17.40
2022-08-14T17:56:30.813Z,13.30
2022-08-14T17:59:03.922Z,45.13
2022-08-14T18:01:35.934Z,17.27
2022-08-14T18:04:24.538Z,166.70
2022-08-14T18:07:06.061Z,433.05
2022-08-14T18:09:56.502Z,564.55
2022-08-14T18:12:32.031Z,422.77
2022-08-14T18:15:14.817Z,363.17
2022-08-14T18:17:50.610Z,25.05
2022-08-14T18:21:39.633Z,8.60
2022-08-14T18:23:08.263Z,45.05
2022-08-14T18:25:47.198Z,7.22
2022-08-14T18:28:17.936Z,134.83
2022-08-14T18:31:45.460Z,879.17
2022-08-14T18:34:30.637Z,726.93
2022-08-14T18:37:09.598Z,1167.45
2022-08-14T18:40:02.221Z,666.33
2022-08-14T18:42:34.849Z,880.77
2022-08-14T18:45:05.861Z,857.17
2022-08-14T18:48:03.570Z,1139.75
2022-08-14T18:50:30.878Z,924.17
2022-08-14T18:53:07.364Z,936.08
2022-08-14T18:55:34.085Z,666.33
2022-08-14T18:58:00.902Z,939.25
2022-08-14T19:00:33.177Z,1203.28
2022-08-14T19:03:04.900Z,883.20
2022-08-14T19:05:49.403Z,884.88
2022-08-14T19:08:25.007Z,1305.32
2022-08-14T19:11:01.706Z,987.40
2022-08-14T19:13:48.126Z,561.47
2022-08-14T19:16:22.948Z,454.88
2022-08-14T19:19:01.707Z,12.85
2022-08-14T19:21:32.666Z,613.83
2022-08-14T19:24:29.762Z,647.22
2022-08-14T19:27:19.237Z,756.15
2022-08-14T19:29:51.120Z,747.30
2022-08-14T19:32:39.757Z,1191.97
2022-08-14T19:35:24.840Z,911.47
2022-08-14T19:38:32.024Z,847.15
2022-08-14T19:41:01.616Z,848.63
2022-08-14T19:43:56.215Z,713.08
2022-08-14T19:46:38.849Z,1012.95
2022-08-14T19:49:08.829Z,614.63
2022-08-14T19:51:45.069Z,926.00
2022-08-14T19:54:13.150Z,831.55
2022-08-14T19:56:45.271Z,1028.43
2022-08-14T19:59:18.116Z,780.47
2022-08-14T20:01:49.603Z,762.05
2022-08-14T20:04:46.128Z,1038.68
2022-08-14T20:07:11.567Z,908.75
2022-08-14T20:11:03.590Z,863.50
2022-08-14T20:12:36.717Z,1106.65
2022-08-14T20:15:17.940Z,866.58
2022-08-14T20:17:54.276Z,970.40
2022-08-14T20:20:31.846Z,933.28
2022-08-14T20:23:11.428Z,851.80
2022-08-14T20:25:45.311Z,1264.88
2022-08-14T20:28:30.701Z,1141.72
2022-08-14T20:31:15.824Z,855.75
2022-08-14T20:34:03.331Z,960.58
2022-08-14T20:36:30.813Z,998.42
2022-08-14T20:39:00.814Z,899.57
2022-08-14T20:41:27.704Z,517.75
2022-08-14T20:44:20.836Z,379.05
2022-08-14T20:47:01.029Z,224.48
2022-08-14T20:49:31.122Z,192.30
2022-08-14T20:52:18.758Z,10.75
2022-08-14T20:54:51.409Z,223.13
2022-08-14T20:57:19.359Z,470.65
2022-08-14T20:59:53.123Z,601.08
2022-08-14T21:02:29.343Z,408.85
2022-08-14T21:05:17.127Z,917.92
2022-08-14T21:07:50.964Z,616.97
2022-08-14T21:10:33.565Z,638.25
2022-08-14T21:14:08.579Z,651.10
2022-08-14T21:15:57.194Z,703.13
2022-08-14T21:18:28.683Z,927.30
2022-08-14T21:20:56.551Z,756.55
2022-08-14T21:23:23.338Z,1139.72
2022-08-14T21:25:50.556Z,1272.95
2022-08-14T21:28:29.391Z,1415.50
2022-08-14T21:30:58.013Z,1405.35
2022-08-14T21:33:25.455Z,1031.67
2022-08-14T21:35:55.430Z,1395.68
2022-08-14T21:38:34.170Z,1399.20
2022-08-14T21:41:41.896Z,1188.50
2022-08-14T21:44:17.595Z,1033.88
2022-08-14T21:46:54.430Z,938.15
2022-08-14T21:49:34.109Z,956.58
2022-08-14T21:52:51.209Z,1123.97
2022-08-14T21:54:56.232Z,815.20
2022-08-14T21:57:55.719Z,712.70
2022-08-14T22:00:34.860Z,559.28
2022-08-14T22:03:05.442Z,522.30
2022-08-14T22:05:32.883Z,470.67
2022-08-14T22:08:02.719Z,918.67
2022-08-14T22:10:30.024Z,623.03
2022-08-14T22:13:01.132Z,496.37
2022-08-14T22:15:29.943Z,809.77
2022-08-14T22:17:58.364Z,685.55
2022-08-14T22:20:29.224Z,608.58
2022-08-14T22:23:04.350Z,590.40
2022-08-14T22:25:34.549Z,530.85
2022-08-14T22:28:17.773Z,609.50
2022-08-14T22:30:46.142Z,412.88
2022-08-14T22:33:14.352Z,819.08
2022-08-14T22:35:44.368Z,862.90
2022-08-14T22:38:37.439Z,823.22
2022-08-14T22:41:24.989Z,948.45
2022-08-14T22:43:47.594Z,818.92
2022-08-14T22:46:15.547Z,976.50
2022-08-14T22:48:48.440Z,711.85
2022-08-14T22:51:17.699Z,424.13
2022-08-14T22:53:46.261Z,1409.22
2022-08-14T22:56:20.677Z,1324.50
2022-08-14T22:58:53.675Z,1363.53
2022-08-14T23:01:56.811Z,1172.13
2022-08-14T23:04:35.750Z,1404.88
2022-08-14T23:07:21.734Z,470.38
2022-08-14T23:09:56.629Z,648.45
2022-08-14T23:12:29.869Z,694.20
2022-08-14T23:14:59.213Z,486.65
2022-08-14T23:17:28.120Z,744.22
2022-08-14T23:20:18.991Z,607.08
2022-08-14T23:22:48.459Z,927.08
2022-08-14T23:25:19.978Z,642.35
2022-08-14T23:28:07.303Z,1337.93
2022-08-14T23:30:55.121Z,895.08
2022-08-14T23:33:22.120Z,1195.93
2022-08-14T23:35:58.883Z,939.92
2022-08-14T23:38:30.302Z,1003.40
2022-08-14T23:41:02.485Z,1032.10
2022-08-14T23:43:31.295Z,959.95
2022-08-14T23:45:58.943Z,871.40
2022-08-14T23:48:28.117Z,1105.90
2022-08-14T23:50:55.858Z,1031.43
2022-08-14T23:53:28.246Z,1316.22
2022-08-14T23:56:31.696Z,1261.93
2022-08-14T23:59:01.739Z,1249.35
